createdAt,value
2023-04-16T00:00:34.272Z,100189.34
2023-04-16T00:05:57.043Z,100191.58
2023-04-16T00:10:59.725Z,100193.71
2023-04-16T00:16:02.506Z,100194.45
2023-04-16T00:21:05.653Z,100199.50
2023-04-16T00:26:09.136Z,100198.15
2023-04-16T00:31:11.994Z,100198.54
2023-04-16T00:36:14.877Z,100199.58
2023-04-16T00:41:18.035Z,100201.05
2023-04-16T00:46:25.573Z,100202.59
2023-04-16T00:51:29.086Z,100202.33
2023-04-16T00:56:33.452Z,100206.61
2023-04-16T01:01:36.320Z,100207.80
2023-04-16T01:06:39.167Z,100205.96
2023-04-16T01:11:41.886Z,100206.70
2023-04-16T01:16:44.667Z,100206.23
2023-04-16T01:21:47.461Z,100204.19
2023-04-16T01:26:50.283Z,100202.56
2023-04-16T01:31:53.331Z,100204.42
2023-04-16T01:36:57.058Z,100202.68
2023-04-16T01:41:59.786Z,100199.69
2023-04-16T01:47:02.713Z,100201.13
2023-04-16T01:52:05.611Z,100198.46
2023-04-16T01:57:08.373Z,100201.46
2023-04-16T02:02:12.642Z,100202.83
2023-04-16T02:07:16.410Z,100206.29
2023-04-16T02:12:19.799Z,100211.87
2023-04-16T02:17:22.569Z,100212.83
2023-04-16T02:22:25.687Z,100209.66
2023-04-16T02:27:28.423Z,100214.11
2023-04-16T02:32:31.520Z,100218.82
2023-04-16T02:37:35.013Z,100212.77
2023-04-16T02:42:37.702Z,100215.45
2023-04-16T02:47:40.594Z,100218.42
2023-04-16T02:52:43.420Z,100221.91
2023-04-16T02:57:46.234Z,100225.02
2023-04-16T03:02:49.173Z,100228.69
2023-04-16T03:07:56.823Z,100232.70
2023-04-16T03:12:59.572Z,100236.63
2023-04-16T03:18:02.570Z,100240.60
2023-04-16T03:23:05.558Z,100248.18
2023-04-16T03:28:08.278Z,100247.69
2023-04-16T03:33:11.273Z,100249.80
2023-04-16T03:38:14.200Z,100249.09
2023-04-16T03:43:16.893Z,100251.80
2023-04-16T03:48:20.159Z,100255.05
2023-04-16T03:53:22.886Z,100255.38
2023-04-16T03:58:25.907Z,100261.52
2023-04-16T04:03:29.135Z,100261.06
2023-04-16T04:08:32.264Z,100267.45
2023-04-16T04:13:35.133Z,100272.16
2023-04-16T04:18:37.895Z,100272.52
2023-04-16T04:23:42.565Z,100274.88
2023-04-16T04:28:45.344Z,100280.16
2023-04-16T04:33:48.264Z,100285.70
2023-04-16T04:38:51.256Z,100289.64
2023-04-16T04:43:54.117Z,100293.85
2023-04-16T04:48:57.296Z,100299.55
2023-04-16T04:54:00.026Z,100303.14
2023-04-16T04:59:03.185Z,100304.77
2023-04-16T05:04:06.442Z,100311.41
2023-04-16T05:09:12.482Z,100313.29
2023-04-16T05:14:15.211Z,100312.41
2023-04-16T05:19:17.974Z,100318.71
2023-04-16T05:24:20.786Z,100319.31
2023-04-16T05:29:24.003Z,100323.41
2023-04-16T05:34:26.706Z,100329.04
2023-04-16T05:39:29.419Z,100335.77
2023-04-16T05:44:32.164Z,100340.02
2023-04-16T05:49:37.680Z,100340.02
2023-04-16T05:54:40.888Z,100340.28
2023-04-16T05:59:44.179Z,100340.16
2023-04-16T06:04:46.990Z,100340.37
2023-04-16T06:09:49.690Z,100346.74
2023-04-16T06:14:52.622Z,100343.45
2023-04-16T06:19:55.908Z,100350.17
2023-04-16T06:24:58.708Z,100356.04
2023-04-16T06:30:01.529Z,100357.84
2023-04-16T06:35:05.304Z,100360.23
2023-04-16T06:40:09.044Z,100361.64
2023-04-16T06:45:12.775Z,100363.63
2023-04-16T06:50:16.194Z,100361.65
2023-04-16T06:55:18.997Z,100356.94
2023-04-16T07:00:21.896Z,100363.47
2023-04-16T07:05:24.703Z,100368.42
2023-04-16T07:10:28.002Z,100364.45
2023-04-16T07:15:30.833Z,100367.34
2023-04-16T07:20:33.663Z,100375.11
2023-04-16T07:25:36.523Z,100381.77
2023-04-16T07:30:39.429Z,100388.60
2023-04-16T07:35:42.131Z,100384.83
2023-04-16T07:40:44.929Z,100388.73
2023-04-16T07:45:47.805Z,100394.80
2023-04-16T07:50:50.941Z,100396.02
2023-04-16T07:55:53.651Z,100399.25
2023-04-16T08:00:56.647Z,100400.39
2023-04-16T08:05:59.654Z,100400.16
2023-04-16T08:11:02.338Z,100404.60
2023-04-16T08:16:06.148Z,100407.10
2023-04-16T08:21:09.087Z,100414.08
2023-04-16T08:26:11.810Z,100417.39
2023-04-16T08:31:14.603Z,100422.07
2023-04-16T08:36:17.351Z,100425.26
2023-04-16T08:41:22.979Z,100435.28
2023-04-16T08:46:28.655Z,100437.73
2023-04-16T08:51:35.459Z,100441.04
2023-04-16T08:56:43.399Z,100446.14
2023-04-16T09:01:49.221Z,100450.90
2023-04-16T09:06:53.873Z,100456.34
2023-04-16T09:11:56.664Z,100459.48
2023-04-16T09:17:03.239Z,100460.30
2023-04-16T09:22:06.426Z,100466.20
2023-04-16T09:27:09.506Z,100468.11
2023-04-16T09:32:12.463Z,100472.03
2023-04-16T09:37:16.927Z,100474.20
2023-04-16T09:42:27.814Z,100480.63
2023-04-16T09:47:41.627Z,100481.48
2023-04-16T09:52:48.265Z,100486.29
2023-04-16T09:57:59.659Z,100488.80
2023-04-16T10:03:07.539Z,100492.35
2023-04-16T10:08:14.430Z,100494.66
2023-04-16T10:13:19.344Z,100500.52
2023-04-16T10:18:22.862Z,100504.38
2023-04-16T10:23:26.691Z,100510.20
2023-04-16T10:28:31.113Z,100512.62
2023-04-16T10:33:37.399Z,100515.39
2023-04-16T10:38:44.905Z,100519.52
2023-04-16T10:43:50.909Z,100517.77
2023-04-16T10:48:55.840Z,100521.19
2023-04-16T10:54:03.053Z,100520.19
2023-04-16T10:59:07.070Z,100524.33
2023-04-16T11:04:22.315Z,100531.35
2023-04-16T11:09:46.164Z,100537.70
2023-04-16T11:14:52.163Z,100537.32
2023-04-16T11:19:55.769Z,100541.02
2023-04-16T11:24:58.568Z,100543.42
2023-04-16T11:30:04.310Z,100544.93
2023-04-16T11:35:33.539Z,100546.24
2023-04-16T11:40:36.596Z,100548.39
2023-04-16T11:45:39.463Z,100551.84
2023-04-16T11:50:42.401Z,100557.77
2023-04-16T11:55:46.033Z,100561.45
2023-04-16T12:00:49.812Z,100566.95
2023-04-16T12:05:52.494Z,100571.52
2023-04-16T12:10:56.344Z,100575.34
2023-04-16T12:15:59.432Z,100577.71
2023-04-16T12:21:04.753Z,100581.34
2023-04-16T12:26:10.822Z,100584.67
2023-04-16T12:31:14.723Z,100585.97
2023-04-16T12:36:19.069Z,100581.86
2023-04-16T12:41:22.078Z,100579.13
2023-04-16T12:46:24.877Z,100580.53
2023-04-16T12:51:28.112Z,100579.19
2023-04-16T12:56:31.414Z,100580.91
2023-04-16T13:01:36.800Z,100578.09
2023-04-16T13:06:42.503Z,100584.95
2023-04-16T13:11:45.936Z,100587.70
2023-04-16T13:16:48.624Z,100585.30
2023-04-16T13:21:51.355Z,100590.96
2023-04-16T13:26:54.146Z,100587.30
2023-04-16T13:31:57.653Z,100591.62
2023-04-16T13:37:00.455Z,100597.72
2023-04-16T13:42:03.277Z,100596.77
2023-04-16T13:47:06.557Z,100597.81
2023-04-16T13:52:09.688Z,100595.91
2023-04-16T13:57:12.731Z,100597.41
2023-04-16T14:02:15.690Z,100599.85
2023-04-16T14:07:19.934Z,100598.95
2023-04-16T14:12:23.144Z,100595.97
2023-04-16T14:17:25.966Z,100592.86
2023-04-16T14:22:28.849Z,100596.20
2023-04-16T14:27:32.562Z,100595.61
2023-04-16T14:32:36.296Z,100597.55
2023-04-16T14:37:39.294Z,100598.90
2023-04-16T14:42:42.112Z,100600.42
2023-04-16T14:47:48.290Z,100599.98
2023-04-16T14:52:51.538Z,100603.03
2023-04-16T14:57:54.302Z,100609.10
2023-04-16T15:02:57.957Z,100609.96
2023-04-16T15:08:01.263Z,100619.67
2023-04-16T15:13:04.037Z,100619.71
2023-04-16T15:18:06.911Z,100616.37
2023-04-16T15:23:09.659Z,100619.10
2023-04-16T15:28:12.630Z,100624.60
2023-04-16T15:33:16.252Z,100625.27
2023-04-16T15:38:21.626Z,100622.59
2023-04-16T15:43:28.002Z,100624.05
2023-04-16T15:48:30.705Z,100626.57
2023-04-16T15:53:34.593Z,100630.59
2023-04-16T15:58:37.296Z,100633.39
2023-04-16T16:03:40.299Z,100638.97
2023-04-16T16:08:44.000Z,100639.88
2023-04-16T16:13:46.997Z,100641.84
2023-04-16T16:18:49.711Z,100645.79
2023-04-16T16:23:52.415Z,100652.20
2023-04-16T16:28:57.165Z,100658.77
2023-04-16T16:34:00.046Z,100655.67
2023-04-16T16:39:04.358Z,100660.10
2023-04-16T16:44:07.021Z,100660.20
2023-04-16T16:49:10.230Z,100663.98
2023-04-16T16:54:13.563Z,100666.40
2023-04-16T16:59:16.304Z,100669.70
2023-04-16T17:04:20.386Z,100667.66
2023-04-16T17:09:23.446Z,100667.27
2023-04-16T17:14:26.207Z,100673.68
2023-04-16T17:19:28.940Z,100677.44
2023-04-16T17:24:31.739Z,100681.87
2023-04-16T17:29:34.616Z,100685.64
2023-04-16T17:34:37.332Z,100688.95
2023-04-16T17:39:40.035Z,100691.02
2023-04-16T17:44:43.364Z,100697.80
2023-04-16T17:49:46.363Z,100699.79
2023-04-16T17:54:49.464Z,100703.51
2023-04-16T17:59:52.685Z,100706.68
2023-04-16T18:04:55.675Z,100714.87
2023-04-16T18:09:58.681Z,100724.25
2023-04-16T18:15:01.560Z,100727.67
2023-04-16T18:20:07.264Z,100727.48
2023-04-16T18:25:10.159Z,100730.17
2023-04-16T18:30:20.153Z,100732.61
2023-04-16T18:35:28.366Z,100738.80
2023-04-16T18:40:34.521Z,100741.23
2023-04-16T18:45:37.370Z,100740.29
2023-04-16T18:50:40.321Z,100745.70
2023-04-16T18:55:43.076Z,100746.40
2023-04-16T19:00:46.336Z,100744.83
2023-04-16T19:05:49.323Z,100748.13
2023-04-16T19:10:52.129Z,100752.20
2023-04-16T19:16:01.786Z,100751.16
2023-04-16T19:21:05.770Z,100752.39
2023-04-16T19:26:08.888Z,100753.52
2023-04-16T19:31:11.680Z,100752.98
2023-04-16T19:36:14.616Z,100749.20
2023-04-16T19:41:17.726Z,100750.09
2023-04-16T19:46:20.844Z,100750.10
2023-04-16T19:51:24.620Z,100752.21
2023-04-16T19:56:27.632Z,100745.56
2023-04-16T20:01:33.763Z,100741.80
2023-04-16T20:06:37.020Z,100737.48
2023-04-16T20:11:39.709Z,100742.90
2023-04-16T20:16:43.756Z,100739.97
2023-04-16T20:21:46.755Z,100740.71
2023-04-16T20:26:49.889Z,100738.55
2023-04-16T20:31:52.883Z,100743.77
2023-04-16T20:36:55.873Z,100749.79
2023-04-16T20:41:58.571Z,100750.89
2023-04-16T20:47:01.358Z,100752.13
2023-04-16T20:52:05.653Z,100755.78
2023-04-16T20:57:08.512Z,100761.09
2023-04-16T21:02:11.714Z,100766.83
2023-04-16T21:07:14.931Z,100767.48
2023-04-16T21:12:17.718Z,100773.09
2023-04-16T21:17:20.757Z,100776.90
2023-04-16T21:22:24.048Z,100775.04
2023-04-16T21:27:26.857Z,100775.38
2023-04-16T21:32:29.553Z,100776.91
2023-04-16T21:37:32.324Z,100777.88
2023-04-16T21:42:40.133Z,100774.21
2023-04-16T21:47:42.910Z,100774.48
2023-04-16T21:52:46.846Z,100779.14
2023-04-16T21:57:50.120Z,100781.91
2023-04-16T22:02:56.264Z,100783.86
2023-04-16T22:07:59.209Z,100783.54
2023-04-16T22:13:02.259Z,100781.76
2023-04-16T22:18:05.125Z,100781.44
2023-04-16T22:23:08.022Z,100780.48
2023-04-16T22:28:10.728Z,100783.14
2023-04-16T22:33:13.494Z,100781.59
2023-04-16T22:38:16.884Z,100778.23
2023-04-16T22:43:19.560Z,100782.91
2023-04-16T22:48:22.647Z,100787.16
2023-04-16T22:53:25.877Z,100787.39
2023-04-16T22:58:28.659Z,100788.52
2023-04-16T23:03:32.109Z,100788.77
2023-04-16T23:08:35.077Z,100789.64
2023-04-16T23:13:38.562Z,100791.12
2023-04-16T23:18:41.400Z,100790.46
2023-04-16T23:23:44.198Z,100791.64
2023-04-16T23:28:47.004Z,100796.92
2023-04-16T23:33:49.801Z,100798.12
2023-04-16T23:38:52.580Z,100797.81
2023-04-16T23:43:55.294Z,100801.23
2023-04-16T23:48:58.106Z,100807.27
2023-04-16T23:54:00.909Z,100802.97
2023-04-16T23:59:03.709Z,100795.86
